sensor_id;sensor_type;location;lat;lon;timestamp;pressure;altitude;pressure_sealevel;temperature;humidity
59759;BME280;61150;62.516;17.862;2022-08-11T00:01:45;100932.24;;;15.56;78.58
59759;BME280;61150;62.516;17.862;2022-08-11T00:04:15;100933.97;;;15.51;78.28
59759;BME280;61150;62.516;17.862;2022-08-11T00:06:46;100934.28;;;15.62;77.95
59759;BME280;61150;62.516;17.862;2022-08-11T00:09:18;100933.36;;;15.39;77.92
59759;BME280;61150;62.516;17.862;2022-08-11T00:11:50;100935.14;;;15.47;78.45
59759;BME280;61150;62.516;17.862;2022-08-11T00:14:20;100937.02;;;15.38;78.09
59759;BME280;61150;62.516;17.862;2022-08-11T00:16:55;100928.76;;;15.35;78.34
59759;BME280;61150;62.516;17.862;2022-08-11T00:19:26;100930.70;;;15.21;78.02
59759;BME280;61150;62.516;17.862;2022-08-11T00:21:57;100934.61;;;15.33;78.47
59759;BME280;61150;62.516;17.862;2022-08-11T00:24:31;100929.76;;;15.37;78.95
59759;BME280;61150;62.516;17.862;2022-08-11T00:27:01;100926.37;;;15.46;79.73
59759;BME280;61150;62.516;17.862;2022-08-11T00:29:31;100922.08;;;15.48;80.23
59759;BME280;61150;62.516;17.862;2022-08-11T00:32:02;100919.19;;;15.43;79.84
59759;BME280;61150;62.516;17.862;2022-08-11T00:34:33;100919.84;;;15.53;80.04
59759;BME280;61150;62.516;17.862;2022-08-11T00:37:07;100917.66;;;15.45;79.95
59759;BME280;61150;62.516;17.862;2022-08-11T00:39:45;100914.91;;;15.68;79.43
59759;BME280;61150;62.516;17.862;2022-08-11T00:42:24;100916.26;;;15.69;79.22
59759;BME280;61150;62.516;17.862;2022-08-11T00:45:03;100915.76;;;15.96;78.75
59759;BME280;61150;62.516;17.862;2022-08-11T00:47:43;100914.43;;;15.96;78.40
59759;BME280;61150;62.516;17.862;2022-08-11T00:50:24;100914.35;;;15.86;78.27
59759;BME280;61150;62.516;17.862;2022-08-11T00:53:06;100913.17;;;16.01;78.14
59759;BME280;61150;62.516;17.862;2022-08-11T00:55:58;100918.26;;;15.88;77.83
59759;BME280;61150;62.516;17.862;2022-08-11T01:03:15;100920.28;;;16.33;76.71
59759;BME280;61150;62.516;17.862;2022-08-11T01:06:01;100911.03;;;16.40;76.06
59759;BME280;61150;62.516;17.862;2022-08-11T01:08:48;100905.84;;;16.24;75.82
59759;BME280;61150;62.516;17.862;2022-08-11T01:11:50;100912.36;;;16.31;76.19
59759;BME280;61150;62.516;17.862;2022-08-11T01:14:44;100904.09;;;16.36;76.44
59759;BME280;61150;62.516;17.862;2022-08-11T01:17:46;100905.11;;;16.34;76.67
59759;BME280;61150;62.516;17.862;2022-08-11T01:21:17;100906.01;;;16.37;76.66
59759;BME280;61150;62.516;17.862;2022-08-11T01:24:21;100907.71;;;16.39;76.36
59759;BME280;61150;62.516;17.862;2022-08-11T01:27:14;100903.63;;;16.38;75.99
59759;BME280;61150;62.516;17.862;2022-08-11T01:30:13;100901.76;;;16.47;75.85
59759;BME280;61150;62.516;17.862;2022-08-11T01:35:19;100908.20;;;16.18;75.29
59759;BME280;61150;62.516;17.862;2022-08-11T01:40:30;100914.46;;;16.23;75.31
59759;BME280;61150;62.516;17.862;2022-08-11T01:43:22;100913.84;;;16.21;75.89
59759;BME280;61150;62.516;17.862;2022-08-11T01:46:03;100917.57;;;15.93;75.70
59759;BME280;61150;62.516;17.862;2022-08-11T01:48:40;100927.09;;;15.77;76.17
59759;BME280;61150;62.516;17.862;2022-08-11T01:51:19;100933.92;;;15.73;76.56
59759;BME280;61150;62.516;17.862;2022-08-11T01:53:55;100930.53;;;15.84;76.53
59759;BME280;61150;62.516;17.862;2022-08-11T01:56:34;100928.40;;;15.55;76.24
59759;BME280;61150;62.516;17.862;2022-08-11T01:59:14;100929.77;;;15.53;76.13
59759;BME280;61150;62.516;17.862;2022-08-11T02:02:00;100932.42;;;15.45;77.08
59759;BME280;61150;62.516;17.862;2022-08-11T02:04:35;100931.87;;;15.35;77.26
59759;BME280;61150;62.516;17.862;2022-08-11T02:07:15;100934.17;;;15.38;77.31
59759;BME280;61150;62.516;17.862;2022-08-11T02:09:55;100940.02;;;15.41;77.69
59759;BME280;61150;62.516;17.862;2022-08-11T02:12:40;100936.77;;;15.43;78.06
59759;BME280;61150;62.516;17.862;2022-08-11T02:15:19;100928.37;;;15.38;78.35
59759;BME280;61150;62.516;17.862;2022-08-11T02:18:03;100932.15;;;15.45;77.77
59759;BME280;61150;62.516;17.862;2022-08-11T02:20:40;100935.94;;;15.44;77.16
59759;BME280;61150;62.516;17.862;2022-08-11T02:23:21;100933.93;;;15.46;77.13
59759;BME280;61150;62.516;17.862;2022-08-11T02:25:56;100934.72;;;15.58;78.00
59759;BME280;61150;62.516;17.862;2022-08-11T02:28:30;100933.40;;;15.58;78.95
59759;BME280;61150;62.516;17.862;2022-08-11T02:31:11;100940.73;;;15.51;78.48
59759;BME280;61150;62.516;17.862;2022-08-11T02:33:41;100938.30;;;15.44;78.01
59759;BME280;61150;62.516;17.862;2022-08-11T02:36:15;100938.46;;;15.42;78.14
59759;BME280;61150;62.516;17.862;2022-08-11T02:38:51;100930.33;;;15.44;77.48
59759;BME280;61150;62.516;17.862;2022-08-11T02:41:27;100926.80;;;15.38;76.92
59759;BME280;61150;62.516;17.862;2022-08-11T02:44:11;100929.88;;;15.30;76.71
59759;BME280;61150;62.516;17.862;2022-08-11T02:46:52;100938.49;;;15.16;76.90
59759;BME280;61150;62.516;17.862;2022-08-11T02:49:39;100940.28;;;15.15;78.56
59759;BME280;61150;62.516;17.862;2022-08-11T02:52:21;100943.85;;;15.24;80.77
59759;BME280;61150;62.516;17.862;2022-08-11T02:55:01;100944.49;;;15.08;80.59
59759;BME280;61150;62.516;17.862;2022-08-11T02:57:36;100946.92;;;15.35;81.14
59759;BME280;61150;62.516;17.862;2022-08-11T03:00:09;100947.24;;;15.15;81.41
59759;BME280;61150;62.516;17.862;2022-08-11T03:02:48;100948.53;;;15.16;80.76
59759;BME280;61150;62.516;17.862;2022-08-11T03:05:26;100955.03;;;15.04;80.94
59759;BME280;61150;62.516;17.862;2022-08-11T03:08:07;100965.18;;;15.18;81.61
59759;BME280;61150;62.516;17.862;2022-08-11T03:10:45;100974.86;;;15.12;81.22
59759;BME280;61150;62.516;17.862;2022-08-11T03:13:19;100968.38;;;15.22;80.96
59759;BME280;61150;62.516;17.862;2022-08-11T03:16:08;100968.93;;;15.16;80.84
59759;BME280;61150;62.516;17.862;2022-08-11T03:18:46;100973.71;;;15.22;80.64
59759;BME280;61150;62.516;17.862;2022-08-11T03:21:21;100977.25;;;15.29;79.46
59759;BME280;61150;62.516;17.862;2022-08-11T03:24:00;100978.43;;;15.32;80.21
59759;BME280;61150;62.516;17.862;2022-08-11T03:26:34;100976.02;;;15.24;81.09
59759;BME280;61150;62.516;17.862;2022-08-11T03:29:12;100979.40;;;15.02;81.53
59759;BME280;61150;62.516;17.862;2022-08-11T03:31:48;100981.96;;;15.16;81.39
59759;BME280;61150;62.516;17.862;2022-08-11T03:34:21;100977.57;;;15.20;81.44
59759;BME280;61150;62.516;17.862;2022-08-11T03:37:14;100980.29;;;15.20;81.11
59759;BME280;61150;62.516;17.862;2022-08-11T03:39:53;100984.02;;;15.24;80.99
59759;BME280;61150;62.516;17.862;2022-08-11T03:42:29;100987.04;;;15.23;80.34
59759;BME280;61150;62.516;17.862;2022-08-11T03:45:11;100985.65;;;15.24;79.62
59759;BME280;61150;62.516;17.862;2022-08-11T03:47:54;100986.69;;;15.28;79.57
59759;BME280;61150;62.516;17.862;2022-08-11T03:50:35;100988.22;;;15.36;79.24
59759;BME280;61150;62.516;17.862;2022-08-11T03:53:19;100996.44;;;15.35;78.75
59759;BME280;61150;62.516;17.862;2022-08-11T03:56:19;100998.23;;;15.38;78.78
59759;BME280;61150;62.516;17.862;2022-08-11T03:59:13;100991.46;;;15.54;78.23
59759;BME280;61150;62.516;17.862;2022-08-11T04:05:34;100997.06;;;15.34;77.78
59759;BME280;61150;62.516;17.862;2022-08-11T04:10:48;101007.61;;;15.44;78.09
59759;BME280;61150;62.516;17.862;2022-08-11T04:13:39;101019.49;;;15.83;77.11
59759;BME280;61150;62.516;17.862;2022-08-11T04:16:36;101018.09;;;15.98;76.63
59759;BME280;61150;62.516;17.862;2022-08-11T04:19:29;101022.44;;;15.93;76.10
59759;BME280;61150;62.516;17.862;2022-08-11T04:22:30;101020.67;;;15.91;77.18
59759;BME280;61150;62.516;17.862;2022-08-11T04:25:15;101015.17;;;15.91;77.54
59759;BME280;61150;62.516;17.862;2022-08-11T04:28:10;101025.14;;;16.00;77.81
59759;BME280;61150;62.516;17.862;2022-08-11T04:31:02;101043.99;;;16.30;78.07
59759;BME280;61150;62.516;17.862;2022-08-11T04:33:58;101052.27;;;16.43;77.90
59759;BME280;61150;62.516;17.862;2022-08-11T04:36:53;101056.39;;;16.47;77.28
59759;BME280;61150;62.516;17.862;2022-08-11T04:39:38;101059.89;;;16.60;77.73
59759;BME280;61150;62.516;17.862;2022-08-11T04:42:58;101061.29;;;16.80;78.35
59759;BME280;61150;62.516;17.862;2022-08-11T04:45:44;101059.92;;;16.89;78.40
59759;BME280;61150;62.516;17.862;2022-08-11T04:48:37;101063.48;;;17.04;78.27
59759;BME280;61150;62.516;17.862;2022-08-11T04:51:24;101068.00;;;17.09;77.56
59759;BME280;61150;62.516;17.862;2022-08-11T04:54:06;101068.45;;;17.06;76.91
59759;BME280;61150;62.516;17.862;2022-08-11T04:56:43;101067.42;;;17.36;75.44
59759;BME280;61150;62.516;17.862;2022-08-11T04:59:26;101074.22;;;17.60;72.84
59759;BME280;61150;62.516;17.862;2022-08-11T05:02:25;101070.44;;;17.84;72.87
59759;BME280;61150;62.516;17.862;2022-08-11T05:05:12;101070.26;;;17.96;72.52
59759;BME280;61150;62.516;17.862;2022-08-11T05:08:28;101091.40;;;18.29;71.80
59759;BME280;61150;62.516;17.862;2022-08-11T05:11:29;101094.95;;;18.85;70.52
59759;BME280;61150;62.516;17.862;2022-08-11T05:14:23;101100.80;;;18.68;69.95
59759;BME280;61150;62.516;17.862;2022-08-11T05:16:58;101107.42;;;18.84;70.57
59759;BME280;61150;62.516;17.862;2022-08-11T05:19:27;101106.23;;;19.35;68.73
59759;BME280;61150;62.516;17.862;2022-08-11T05:21:56;101105.37;;;20.88;67.64
59759;BME280;61150;62.516;17.862;2022-08-11T05:24:29;101105.40;;;23.00;60.20
59759;BME280;61150;62.516;17.862;2022-08-11T05:27:00;101096.08;;;24.42;53.26
59759;BME280;61150;62.516;17.862;2022-08-11T05:29:41;101098.78;;;25.52;54.14
59759;BME280;61150;62.516;17.862;2022-08-11T05:32:11;101104.31;;;25.84;48.89
59759;BME280;61150;62.516;17.862;2022-08-11T05:34:47;101116.66;;;25.28;47.12
59759;BME280;61150;62.516;17.862;2022-08-11T05:37:22;101117.23;;;25.89;43.39
59759;BME280;61150;62.516;17.862;2022-08-11T05:39:56;101112.52;;;26.82;41.90
59759;BME280;61150;62.516;17.862;2022-08-11T05:42:25;101113.87;;;27.31;39.72
59759;BME280;61150;62.516;17.862;2022-08-11T05:45:00;101116.43;;;27.35;39.61
59759;BME280;61150;62.516;17.862;2022-08-11T05:47:33;101116.02;;;27.18;39.14
59759;BME280;61150;62.516;17.862;2022-08-11T05:50:08;101120.78;;;26.61;42.94
59759;BME280;61150;62.516;17.862;2022-08-11T05:52:38;101124.44;;;26.09;43.58
59759;BME280;61150;62.516;17.862;2022-08-11T05:55:08;101130.26;;;25.60;44.02
59759;BME280;61150;62.516;17.862;2022-08-11T05:57:38;101133.28;;;25.08;45.72
59759;BME280;61150;62.516;17.862;2022-08-11T06:00:08;101134.78;;;24.82;46.35
59759;BME280;61150;62.516;17.862;2022-08-11T06:02:40;101141.51;;;24.36;46.32
59759;BME280;61150;62.516;17.862;2022-08-11T06:05:10;101150.18;;;23.88;48.18
59759;BME280;61150;62.516;17.862;2022-08-11T06:07:40;101150.74;;;23.69;47.62
59759;BME280;61150;62.516;17.862;2022-08-11T06:10:09;101155.55;;;23.81;48.00
59759;BME280;61150;62.516;17.862;2022-08-11T06:12:39;101158.59;;;23.94;43.46
59759;BME280;61150;62.516;17.862;2022-08-11T06:15:10;101163.60;;;23.95;44.24
59759;BME280;61150;62.516;17.862;2022-08-11T06:17:44;101160.61;;;23.66;45.06
59759;BME280;61150;62.516;17.862;2022-08-11T06:20:14;101167.48;;;23.55;42.88
59759;BME280;61150;62.516;17.862;2022-08-11T06:22:45;101170.10;;;23.21;44.19
59759;BME280;61150;62.516;17.862;2022-08-11T06:25:16;101174.29;;;22.88;43.60
59759;BME280;61150;62.516;17.862;2022-08-11T06:27:44;101168.47;;;22.96;45.05
59759;BME280;61150;62.516;17.862;2022-08-11T06:30:13;101165.36;;;23.15;45.36
59759;BME280;61150;62.516;17.862;2022-08-11T06:32:43;101169.42;;;23.37;45.63
59759;BME280;61150;62.516;17.862;2022-08-11T06:35:20;101171.23;;;23.43;43.89
59759;BME280;61150;62.516;17.862;2022-08-11T06:38:05;101175.23;;;23.51;43.75
59759;BME280;61150;62.516;17.862;2022-08-11T06:40:40;101178.01;;;23.34;43.81
59759;BME280;61150;62.516;17.862;2022-08-11T06:43:16;101181.51;;;23.33;42.84
59759;BME280;61150;62.516;17.862;2022-08-11T06:45:52;101180.18;;;23.34;44.04
59759;BME280;61150;62.516;17.862;2022-08-11T06:48:24;101182.14;;;23.22;44.89
59759;BME280;61150;62.516;17.862;2022-08-11T06:50:57;101182.97;;;23.13;45.12
59759;BME280;61150;62.516;17.862;2022-08-11T06:53:31;101178.60;;;22.82;46.83
59759;BME280;61150;62.516;17.862;2022-08-11T06:56:01;101185.06;;;22.52;46.51
59759;BME280;61150;62.516;17.862;2022-08-11T06:58:31;101176.33;;;22.61;46.69
59759;BME280;61150;62.516;17.862;2022-08-11T07:03:07;101183.67;;;22.87;44.04
59759;BME280;61150;62.516;17.862;2022-08-11T07:05:43;101183.33;;;23.06;45.75
59759;BME280;61150;62.516;17.862;2022-08-11T07:09:02;101174.92;;;23.00;42.69
59759;BME280;61150;62.516;17.862;2022-08-11T07:11:54;101181.64;;;22.91;42.92
59759;BME280;61150;62.516;17.862;2022-08-11T07:14:29;101183.98;;;22.82;42.57
59759;BME280;61150;62.516;17.862;2022-08-11T07:16:59;101203.86;;;22.47;43.93
59759;BME280;61150;62.516;17.862;2022-08-11T07:19:29;101200.99;;;22.59;41.31
59759;BME280;61150;62.516;17.862;2022-08-11T07:22:02;101194.47;;;22.58;40.56
59759;BME280;61150;62.516;17.862;2022-08-11T07:24:38;101196.46;;;22.69;40.88
59759;BME280;61150;62.516;17.862;2022-08-11T07:27:11;101187.53;;;22.81;39.79
59759;BME280;61150;62.516;17.862;2022-08-11T07:29:42;101193.11;;;22.96;39.30
59759;BME280;61150;62.516;17.862;2022-08-11T07:32:18;101197.79;;;22.95;40.80
59759;BME280;61150;62.516;17.862;2022-08-11T07:34:51;101205.30;;;22.92;39.91
59759;BME280;61150;62.516;17.862;2022-08-11T07:37:23;101213.71;;;22.85;41.27
59759;BME280;61150;62.516;17.862;2022-08-11T07:39:54;101218.84;;;22.85;41.90
59759;BME280;61150;62.516;17.862;2022-08-11T07:42:32;101212.42;;;22.73;40.31
59759;BME280;61150;62.516;17.862;2022-08-11T07:45:04;101203.98;;;22.80;40.25
59759;BME280;61150;62.516;17.862;2022-08-11T07:47:35;101212.97;;;22.73;39.64
59759;BME280;61150;62.516;17.862;2022-08-11T07:50:05;101219.44;;;22.79;40.47
59759;BME280;61150;62.516;17.862;2022-08-11T07:52:36;101222.09;;;22.89;42.65
59759;BME280;61150;62.516;17.862;2022-08-11T07:55:07;101232.34;;;22.90;40.72
59759;BME280;61150;62.516;17.862;2022-08-11T07:57:39;101228.50;;;23.00;40.32
59759;BME280;61150;62.516;17.862;2022-08-11T08:00:09;101223.56;;;23.10;41.23
59759;BME280;61150;62.516;17.862;2022-08-11T08:02:39;101221.96;;;23.17;41.57
59759;BME280;61150;62.516;17.862;2022-08-11T08:05:09;101226.93;;;23.31;42.51
59759;BME280;61150;62.516;17.862;2022-08-11T08:07:38;101225.31;;;23.39;41.35
59759;BME280;61150;62.516;17.862;2022-08-11T08:10:08;101226.38;;;23.37;41.64
59759;BME280;61150;62.516;17.862;2022-08-11T08:12:36;101228.53;;;23.28;41.82
59759;BME280;61150;62.516;17.862;2022-08-11T08:15:09;101231.39;;;23.23;40.74
59759;BME280;61150;62.516;17.862;2022-08-11T08:17:41;101231.29;;;22.99;42.96
59759;BME280;61150;62.516;17.862;2022-08-11T08:20:12;101228.17;;;22.78;41.46
59759;BME280;61150;62.516;17.862;2022-08-11T08:22:41;101233.68;;;22.66;42.52
59759;BME280;61150;62.516;17.862;2022-08-11T08:25:10;101241.47;;;22.57;42.84
59759;BME280;61150;62.516;17.862;2022-08-11T08:27:39;101245.46;;;22.62;43.18
59759;BME280;61150;62.516;17.862;2022-08-11T08:30:08;101249.33;;;22.49;42.28
59759;BME280;61150;62.516;17.862;2022-08-11T08:32:38;101257.72;;;22.31;44.62
59759;BME280;61150;62.516;17.862;2022-08-11T08:35:09;101257.30;;;21.87;43.76
59759;BME280;61150;62.516;17.862;2022-08-11T08:37:38;101254.20;;;21.87;43.84
59759;BME280;61150;62.516;17.862;2022-08-11T08:40:09;101257.00;;;21.55;46.75
59759;BME280;61150;62.516;17.862;2022-08-11T08:42:46;101261.57;;;21.24;44.72
59759;BME280;61150;62.516;17.862;2022-08-11T08:45:14;101261.39;;;21.31;46.12
59759;BME280;61150;62.516;17.862;2022-08-11T08:47:45;101266.92;;;21.22;45.86
59759;BME280;61150;62.516;17.862;2022-08-11T08:50:16;101270.72;;;21.29;46.57
59759;BME280;61150;62.516;17.862;2022-08-11T08:52:52;101267.75;;;21.55;48.20
59759;BME280;61150;62.516;17.862;2022-08-11T08:55:21;101273.79;;;21.60;49.53
59759;BME280;61150;62.516;17.862;2022-08-11T08:57:51;101276.79;;;21.57;49.85
59759;BME280;61150;62.516;17.862;2022-08-11T09:00:22;101276.13;;;21.82;49.02
59759;BME280;61150;62.516;17.862;2022-08-11T09:02:50;101281.68;;;21.89;48.18
59759;BME280;61150;62.516;17.862;2022-08-11T09:05:19;101284.52;;;21.91;46.46
59759;BME280;61150;62.516;17.862;2022-08-11T09:07:49;101285.97;;;21.94;47.91
59759;BME280;61150;62.516;17.862;2022-08-11T09:10:22;101286.24;;;22.22;47.43
59759;BME280;61150;62.516;17.862;2022-08-11T09:12:52;101287.20;;;22.39;48.06
59759;BME280;61150;62.516;17.862;2022-08-11T09:15:22;101283.41;;;22.49;46.99
59759;BME280;61150;62.516;17.862;2022-08-11T09:17:53;101284.22;;;22.49;47.16
59759;BME280;61150;62.516;17.862;2022-08-11T09:20:26;101293.27;;;22.59;45.88
59759;BME280;61150;62.516;17.862;2022-08-11T09:22:56;101291.35;;;22.23;47.42
59759;BME280;61150;62.516;17.862;2022-08-11T09:25:27;101292.83;;;22.27;47.59
59759;BME280;61150;62.516;17.862;2022-08-11T09:27:58;101292.75;;;22.54;45.91
59759;BME280;61150;62.516;17.862;2022-08-11T09:30:28;101296.74;;;22.50;42.28
59759;BME280;61150;62.516;17.862;2022-08-11T09:32:58;101300.89;;;22.88;43.89
59759;BME280;61150;62.516;17.862;2022-08-11T09:35:30;101307.26;;;22.82;43.36
59759;BME280;61150;62.516;17.862;2022-08-11T09:38:01;101310.62;;;22.89;42.93
59759;BME280;61150;62.516;17.862;2022-08-11T09:40:32;101307.67;;;23.00;45.24
59759;BME280;61150;62.516;17.862;2022-08-11T09:43:04;101308.13;;;23.18;41.57
59759;BME280;61150;62.516;17.862;2022-08-11T09:45:36;101305.58;;;23.41;41.98
59759;BME280;61150;62.516;17.862;2022-08-11T09:48:07;101308.85;;;23.44;42.36
59759;BME280;61150;62.516;17.862;2022-08-11T09:50:36;101305.92;;;23.38;42.23
59759;BME280;61150;62.516;17.862;2022-08-11T09:53:07;101307.19;;;23.64;43.43
59759;BME280;61150;62.516;17.862;2022-08-11T09:55:37;101305.64;;;24.02;44.04
59759;BME280;61150;62.516;17.862;2022-08-11T09:58:07;101300.97;;;24.50;41.81
59759;BME280;61150;62.516;17.862;2022-08-11T10:02:52;101295.67;;;23.88;39.91
59759;BME280;61150;62.516;17.862;2022-08-11T10:05:23;101300.21;;;23.39;40.61
59759;BME280;61150;62.516;17.862;2022-08-11T10:07:54;101300.63;;;23.49;41.34
59759;BME280;61150;62.516;17.862;2022-08-11T10:10:24;101304.08;;;23.19;42.98
59759;BME280;61150;62.516;17.862;2022-08-11T10:12:57;101300.00;;;23.09;41.46
59759;BME280;61150;62.516;17.862;2022-08-11T10:15:29;101306.48;;;23.34;41.92
59759;BME280;61150;62.516;17.862;2022-08-11T10:18:04;101306.55;;;23.71;42.51
59759;BME280;61150;62.516;17.862;2022-08-11T10:20:36;101309.65;;;23.84;42.45
59759;BME280;61150;62.516;17.862;2022-08-11T10:23:04;101307.76;;;23.81;41.73
59759;BME280;61150;62.516;17.862;2022-08-11T10:25:35;101304.85;;;23.81;41.13
59759;BME280;61150;62.516;17.862;2022-08-11T10:28:06;101313.61;;;23.91;40.07
59759;BME280;61150;62.516;17.862;2022-08-11T10:30:36;101319.09;;;23.98;41.00
59759;BME280;61150;62.516;17.862;2022-08-11T10:33:06;101319.95;;;24.02;41.15
59759;BME280;61150;62.516;17.862;2022-08-11T10:35:36;101323.76;;;23.95;40.74
59759;BME280;61150;62.516;17.862;2022-08-11T10:38:05;101319.83;;;24.17;41.40
59759;BME280;61150;62.516;17.862;2022-08-11T10:40:34;101322.72;;;24.01;40.60
59759;BME280;61150;62.516;17.862;2022-08-11T10:43:02;101317.12;;;24.04;40.39
59759;BME280;61150;62.516;17.862;2022-08-11T10:45:39;101324.39;;;23.74;40.75
59759;BME280;61150;62.516;17.862;2022-08-11T10:48:08;101322.70;;;23.79;40.41
59759;BME280;61150;62.516;17.862;2022-08-11T10:50:36;101323.40;;;23.95;41.74
59759;BME280;61150;62.516;17.862;2022-08-11T10:53:06;101325.54;;;23.92;40.82
59759;BME280;61150;62.516;17.862;2022-08-11T10:55:36;101326.96;;;23.90;39.84
59759;BME280;61150;62.516;17.862;2022-08-11T10:58:06;101329.12;;;24.17;42.75
59759;BME280;61150;62.516;17.862;2022-08-11T11:00:34;101320.03;;;24.52;41.92
59759;BME280;61150;62.516;17.862;2022-08-11T11:03:04;101321.75;;;24.49;39.97
59759;BME280;61150;62.516;17.862;2022-08-11T11:05:34;101323.39;;;24.26;41.64
59759;BME280;61150;62.516;17.862;2022-08-11T11:08:09;101325.75;;;24.21;39.47
59759;BME280;61150;62.516;17.862;2022-08-11T11:10:39;101320.45;;;24.31;41.75
59759;BME280;61150;62.516;17.862;2022-08-11T11:13:09;101325.25;;;24.43;39.91
59759;BME280;61150;62.516;17.862;2022-08-11T11:15:40;101323.11;;;24.67;40.58
59759;BME280;61150;62.516;17.862;2022-08-11T11:18:13;101332.31;;;24.52;41.14
59759;BME280;61150;62.516;17.862;2022-08-11T11:20:46;101333.49;;;24.85;38.54
59759;BME280;61150;62.516;17.862;2022-08-11T11:23:18;101335.28;;;24.86;37.64
59759;BME280;61150;62.516;17.862;2022-08-11T11:25:58;101331.12;;;24.94;39.28
59759;BME280;61150;62.516;17.862;2022-08-11T11:28:39;101338.74;;;24.89;39.33
59759;BME280;61150;62.516;17.862;2022-08-11T11:31:26;101342.08;;;24.49;38.47
59759;BME280;61150;62.516;17.862;2022-08-11T11:34:14;101347.42;;;24.43;38.68
59759;BME280;61150;62.516;17.862;2022-08-11T11:36:48;101346.08;;;24.85;37.86
59759;BME280;61150;62.516;17.862;2022-08-11T11:39:20;101343.15;;;25.04;38.48
59759;BME280;61150;62.516;17.862;2022-08-11T11:41:51;101337.12;;;25.18;37.36
59759;BME280;61150;62.516;17.862;2022-08-11T11:44:21;101346.48;;;25.11;37.14
59759;BME280;61150;62.516;17.862;2022-08-11T11:46:50;101341.78;;;25.35;36.39
59759;BME280;61150;62.516;17.862;2022-08-11T11:49:21;101341.21;;;25.33;37.18
59759;BME280;61150;62.516;17.862;2022-08-11T11:51:51;101340.34;;;25.26;37.04
59759;BME280;61150;62.516;17.862;2022-08-11T11:54:24;101334.47;;;25.09;37.93
59759;BME280;61150;62.516;17.862;2022-08-11T11:56:55;101331.78;;;24.99;37.06
59759;BME280;61150;62.516;17.862;2022-08-11T11:59:26;101329.90;;;24.85;37.62
59759;BME280;61150;62.516;17.862;2022-08-11T12:01:56;101333.40;;;24.88;37.73
59759;BME280;61150;62.516;17.862;2022-08-11T12:04:26;101337.67;;;24.90;38.50
59759;BME280;61150;62.516;17.862;2022-08-11T12:06:56;101339.97;;;24.85;36.93
59759;BME280;61150;62.516;17.862;2022-08-11T12:09:26;101349.25;;;24.45;37.88
59759;BME280;61150;62.516;17.862;2022-08-11T12:11:54;101349.88;;;24.36;38.25
59759;BME280;61150;62.516;17.862;2022-08-11T12:14:23;101349.29;;;24.49;37.33
59759;BME280;61150;62.516;17.862;2022-08-11T12:16:55;101352.55;;;24.47;39.64
59759;BME280;61150;62.516;17.862;2022-08-11T12:19:26;101359.16;;;24.50;39.45
59759;BME280;61150;62.516;17.862;2022-08-11T12:21:56;101348.13;;;24.90;37.15
59759;BME280;61150;62.516;17.862;2022-08-11T12:24:27;101353.37;;;24.55;39.74
59759;BME280;61150;62.516;17.862;2022-08-11T12:26:58;101351.53;;;24.86;38.86
59759;BME280;61150;62.516;17.862;2022-08-11T12:29:27;101359.07;;;24.83;38.89
59759;BME280;61150;62.516;17.862;2022-08-11T12:31:57;101356.18;;;24.84;38.37
59759;BME280;61150;62.516;17.862;2022-08-11T12:34:26;101354.83;;;24.08;39.29
59759;BME280;61150;62.516;17.862;2022-08-11T12:36:57;101357.31;;;23.89;40.99
59759;BME280;61150;62.516;17.862;2022-08-11T12:39:34;101355.03;;;24.12;42.09
59759;BME280;61150;62.516;17.862;2022-08-11T12:42:03;101358.98;;;24.62;39.95
59759;BME280;61150;62.516;17.862;2022-08-11T12:44:32;101360.93;;;24.62;39.39
59759;BME280;61150;62.516;17.862;2022-08-11T12:47:03;101363.84;;;24.42;39.72
59759;BME280;61150;62.516;17.862;2022-08-11T12:49:35;101364.40;;;24.28;40.06
59759;BME280;61150;62.516;17.862;2022-08-11T12:52:07;101364.19;;;24.37;40.64
59759;BME280;61150;62.516;17.862;2022-08-11T12:54:43;101365.80;;;24.58;40.80
59759;BME280;61150;62.516;17.862;2022-08-11T12:57:16;101367.63;;;24.63;39.38
59759;BME280;61150;62.516;17.862;2022-08-11T12:59:46;101367.99;;;24.44;38.98
59759;BME280;61150;62.516;17.862;2022-08-11T13:03:02;101368.01;;;24.03;40.75
59759;BME280;61150;62.516;17.862;2022-08-11T13:05:32;101377.78;;;23.88;42.69
59759;BME280;61150;62.516;17.862;2022-08-11T13:08:02;101372.80;;;23.60;42.43
59759;BME280;61150;62.516;17.862;2022-08-11T13:10:31;101369.11;;;23.77;40.72
59759;BME280;61150;62.516;17.862;2022-08-11T13:13:02;101366.90;;;23.72;40.68
59759;BME280;61150;62.516;17.862;2022-08-11T13:15:31;101370.82;;;23.71;41.39
59759;BME280;61150;62.516;17.862;2022-08-11T13:18:02;101377.88;;;23.58;41.71
59759;BME280;61150;62.516;17.862;2022-08-11T13:20:32;101377.94;;;23.50;42.89
59759;BME280;61150;62.516;17.862;2022-08-11T13:23:02;101385.86;;;23.46;43.11
59759;BME280;61150;62.516;17.862;2022-08-11T13:25:32;101380.86;;;23.41;41.47
59759;BME280;61150;62.516;17.862;2022-08-11T13:28:01;101376.46;;;23.58;43.28
59759;BME280;61150;62.516;17.862;2022-08-11T13:30:31;101372.96;;;23.56;42.01
59759;BME280;61150;62.516;17.862;2022-08-11T13:33:02;101370.68;;;23.51;42.48
59759;BME280;61150;62.516;17.862;2022-08-11T13:35:32;101371.65;;;23.43;44.83
59759;BME280;61150;62.516;17.862;2022-08-11T13:38:04;101370.01;;;23.85;41.69
59759;BME280;61150;62.516;17.862;2022-08-11T13:40:32;101372.13;;;23.92;43.07
59759;BME280;61150;62.516;17.862;2022-08-11T13:43:01;101371.16;;;24.30;41.47
59759;BME280;61150;62.516;17.862;2022-08-11T13:45:29;101366.44;;;24.25;41.26